Ana Sayfa
METAR-TAF:

METAR-TAF

Havaalanları :

Westminster, Maryland, Amerika Birleşik Devletleri

Enlem: 39-36-30N, Boylam: 077-00-28W, yükseklik: 240 m

Güncel hava durumu gözlemi

Rapor saat 02:35 UTC de 25 dakika önce yapıldı.
Rüzgar güneydoğudan 9 kt ve 14 kt'a kadar ani rüzgarlar, doğu ve güneydoğu arasında değişken
Sıcaklık 22°C
Nem 94%
Basınç 1020 hPa
Görüş mesafesi: 16.1 km
800 ft yükseklikte parçalı bulutlu
9000 ft yükseklikte çok bulutlu

METAR: KDMW 070235Z AUTO 13009G14KT 080V140 10SM -VCTSRA SCT008 OVC090 22/21 A3011 RMK AO2 LTG DSNT SE S AND NW P0045

Saat: 23:00 (03:00 UTC)


TAF: eksik

4.000'den fazla havaalanı için hava durumu gözlemleri ve tahminleri (METAR ve TAF raporları).

Kullanılabilir istasyonlar harita üzerinde sarı ve kırmızı noktalarla gösterilir.

İstasyonun adını görmek için fareyi noktanın üzerinde gezdirin.

Sonrasında hava gözlem ve tahminlerini görmek için tıklayın.

Haritayı değiştirmek için: yaklaştırmak için siyah artı işaretli yeşil düğmeye ve uzaklaştırmak için de eksi işaretli düğmeye hızla tıklayın; bitişik haritalar için yeşil okları kullanın.


METAR-TAF: